Biggs Army Air Field (Fort Bliss) Fort Bliss,El Paso US
ICAO: KBIF
IATA: BIF
Category: Medium
Scheduled Services: No

Elevation: 3946 ft
TransAlt. 18000 ft.

Airport Communications:
EL PASO APP:119.15
EL PASO CLNC DEL:125
EL PASO DEP:121.3
GND:121.6
ANG OPS:49.95
PTD:122.7
TWR:127.9

KBIF Zoom In..

If Map Doesn't Load, Click Here

Runways:

(A) RW 03 length 13554 ft width 150 ft
---- / hdg 32

(B) RW 21 length 13554 ft width 150 ft
---- / hdg 212

Location; KBIF
Day. 18 / Time. 19.58 Zulu
* Altimeter: 29.97
* Temperature: 31° c. 87.8°f.
* Wind from: 000° Speed 00 kn.
Dewpoint: 15° c.
Visibility: 10 Statute Miles.
Clouds: Clear (automated report).

KBIF 181958Z AUTO 00000KT 10SM CLR 31/15 A2997 RMK AO2 SLP081 T03120147 $


Wind - Calm.

 
 
jpsmedia.com for Web Design worldairports.se 2018   terms of use